Hinckley, MN (55037)

8:59 PM CST on December 24, 2014 (GMT -0600)
Mission Creek/Brook Park | Change Station
CLOSE
Current Station
Personal Weather Station
Location: Hinckley, MN
Elevation: 969 ft
Nearby Weather Stations

Elev 969 ft 45.98 °N, 93.00 °W | Updated 1 second ago

Overcast
Overcast
32.7 °F
Feels Like 33 °F
N
2.0
Wind Variable Wind from SW
Gusts 7.0 mph

Today
High -- | Low -- °F
--% Chance of Precip.
Yesterday
High -- | Low -- °F
Precip. -- in
7:52 AM 4:30 PM
Waxing Crescent, 12% visible
Pressure 29.55 in
Visibility 10.0 miles
Clouds Overcast 1300 ft
Windchill 33 °F
Dew Point 31 °F
Humidity 93%
Rainfall 0.01 in
Snow Depth Not available.
UV 0 out of 12
Pollen .10 out of 12
Air Quality Not available.
Flu Activity Not available.
METAR K04W 250255Z AUTO 00000KT 10SM OVC013 00/00 A2955 RMK AO2

More Conditions Fewer Conditions

Pressure 29.55 in
Visibility 10.0 miles
Clouds Overcast 1300 ft
Windchill 33 °F
Dew Point 31 °F
Humidity 93%
Rainfall 0.01 in
Snow Depth Not available.
UV 0 out of 12
Pollen .10 out of 12
Air Quality Not available.
Flu Activity Not available.
METAR K04W 250255Z AUTO 00000KT 10SM OVC013 00/00 A2955 RMK AO2

More Conditions Fewer Conditions

10-Day Weather Forecast

Almanac

Astronomy

Dec. 24, 2014 Rise Set
Actual Time
Civil Twilight
Nautical Twilight
Astronomical Twilight
Moon
Length of Visible Light
Length of Day
Tomorrow will be .
, % of the Moon is Illuminated

Today's Extremes

State Highs State Lows

Community

WunderPhotos

Upload Photos

1,780,215 photos uploaded!

WunderBlogs® & News

Nearby

Air Quality

  Air Quality AQ Index Pollutant
Not available.

Snow Depth

Station Depth Elevation

Earthquake Activity

City Distance Mag. Time & Date
Minimum magnitude displayed is 2.5.

Coastal Water Temperatures

Place Temperature

Nearby Weather Stations